sensor_id;sensor_type;location;lat;lon;timestamp;temperature;humidity
8896;DHT22;4484;48.928;10.066;2023-04-01T00:01:06;7.50;99.90
8896;DHT22;4484;48.928;10.066;2023-04-01T00:03:34;7.50;99.90
8896;DHT22;4484;48.928;10.066;2023-04-01T00:06:01;7.50;99.90
8896;DHT22;4484;48.928;10.066;2023-04-01T00:08:28;7.50;99.90
8896;DHT22;4484;48.928;10.066;2023-04-01T00:10:55;7.50;99.90
8896;DHT22;4484;48.928;10.066;2023-04-01T00:13:25;7.50;99.90
8896;DHT22;4484;48.928;10.066;2023-04-01T00:15:53;7.50;99.90
8896;DHT22;4484;48.928;10.066;2023-04-01T00:18:22;7.40;99.90
8896;DHT22;4484;48.928;10.066;2023-04-01T00:20:51;7.40;99.90
8896;DHT22;4484;48.928;10.066;2023-04-01T00:23:19;7.40;99.90
8896;DHT22;4484;48.928;10.066;2023-04-01T00:25:47;7.40;99.90
8896;DHT22;4484;48.928;10.066;2023-04-01T00:28:19;7.40;99.90
8896;DHT22;4484;48.928;10.066;2023-04-01T00:30:47;7.30;99.90
8896;DHT22;4484;48.928;10.066;2023-04-01T00:33:13;7.40;99.90
8896;DHT22;4484;48.928;10.066;2023-04-01T00:35:40;7.30;99.90
8896;DHT22;4484;48.928;10.066;2023-04-01T00:38:08;7.30;99.90
8896;DHT22;4484;48.928;10.066;2023-04-01T00:40:43;7.30;99.90
8896;DHT22;4484;48.928;10.066;2023-04-01T00:43:19;7.20;99.90
8896;DHT22;4484;48.928;10.066;2023-04-01T00:45:48;7.30;99.90
8896;DHT22;4484;48.928;10.066;2023-04-01T00:48:16;7.30;99.90
8896;DHT22;4484;48.928;10.066;2023-04-01T00:51:03;7.40;99.90
8896;DHT22;4484;48.928;10.066;2023-04-01T00:53:32;7.40;99.90
8896;DHT22;4484;48.928;10.066;2023-04-01T00:56:04;7.40;99.90
8896;DHT22;4484;48.928;10.066;2023-04-01T00:58:36;7.30;99.90
8896;DHT22;4484;48.928;10.066;2023-04-01T01:01:05;7.40;99.90
8896;DHT22;4484;48.928;10.066;2023-04-01T01:03:32;7.40;99.90
8896;DHT22;4484;48.928;10.066;2023-04-01T01:06:26;7.40;99.90
8896;DHT22;4484;48.928;10.066;2023-04-01T01:12:18;7.40;99.90
8896;DHT22;4484;48.928;10.066;2023-04-01T01:15:10;7.40;99.90
8896;DHT22;4484;48.928;10.066;2023-04-01T01:28:59;7.30;99.90
8896;DHT22;4484;48.928;10.066;2023-04-01T01:31:41;7.30;99.90
8896;DHT22;4484;48.928;10.066;2023-04-01T01:37:17;7.30;99.90
8896;DHT22;4484;48.928;10.066;2023-04-01T01:39:51;7.30;99.90
8896;DHT22;4484;48.928;10.066;2023-04-01T01:42:20;7.30;99.90
8896;DHT22;4484;48.928;10.066;2023-04-01T01:44:49;7.30;99.90
8896;DHT22;4484;48.928;10.066;2023-04-01T01:47:17;7.30;99.90
8896;DHT22;4484;48.928;10.066;2023-04-01T01:49:45;7.30;99.90
8896;DHT22;4484;48.928;10.066;2023-04-01T01:52:13;7.30;99.90
8896;DHT22;4484;48.928;10.066;2023-04-01T01:54:50;7.30;99.90
8896;DHT22;4484;48.928;10.066;2023-04-01T01:57:39;7.30;99.90
8896;DHT22;4484;48.928;10.066;2023-04-01T02:00:13;7.30;99.90
8896;DHT22;4484;48.928;10.066;2023-04-01T02:02:45;7.30;99.90
8896;DHT22;4484;48.928;10.066;2023-04-01T02:05:20;7.30;99.90
8896;DHT22;4484;48.928;10.066;2023-04-01T02:07:54;7.30;99.90
8896;DHT22;4484;48.928;10.066;2023-04-01T02:10:25;7.30;99.90
8896;DHT22;4484;48.928;10.066;2023-04-01T02:12:54;7.20;99.90
8896;DHT22;4484;48.928;10.066;2023-04-01T02:15:25;7.20;99.90
8896;DHT22;4484;48.928;10.066;2023-04-01T02:17:52;7.20;99.90
8896;DHT22;4484;48.928;10.066;2023-04-01T02:20:22;7.10;99.90
8896;DHT22;4484;48.928;10.066;2023-04-01T02:22:55;7.10;99.90
8896;DHT22;4484;48.928;10.066;2023-04-01T02:25:26;7.10;99.90
8896;DHT22;4484;48.928;10.066;2023-04-01T02:27:55;7.10;99.90
8896;DHT22;4484;48.928;10.066;2023-04-01T02:30:23;7.00;99.90
8896;DHT22;4484;48.928;10.066;2023-04-01T02:32:52;7.00;99.90
8896;DHT22;4484;48.928;10.066;2023-04-01T02:35:20;7.00;99.90
8896;DHT22;4484;48.928;10.066;2023-04-01T02:37:49;7.00;99.90
8896;DHT22;4484;48.928;10.066;2023-04-01T02:40:17;7.00;99.90
8896;DHT22;4484;48.928;10.066;2023-04-01T02:42:44;7.00;99.90
8896;DHT22;4484;48.928;10.066;2023-04-01T02:45:12;7.00;99.90
8896;DHT22;4484;48.928;10.066;2023-04-01T02:47:39;7.00;99.90
8896;DHT22;4484;48.928;10.066;2023-04-01T02:50:07;7.00;99.90
8896;DHT22;4484;48.928;10.066;2023-04-01T02:52:35;6.90;99.90
8896;DHT22;4484;48.928;10.066;2023-04-01T02:55:02;6.90;99.90
8896;DHT22;4484;48.928;10.066;2023-04-01T02:57:30;6.80;99.90
8896;DHT22;4484;48.928;10.066;2023-04-01T02:59:56;6.80;99.90
8896;DHT22;4484;48.928;10.066;2023-04-01T03:02:23;6.70;99.90
8896;DHT22;4484;48.928;10.066;2023-04-01T03:04:50;6.70;99.90
8896;DHT22;4484;48.928;10.066;2023-04-01T03:07:17;6.70;99.90
8896;DHT22;4484;48.928;10.066;2023-04-01T03:09:44;6.60;99.90
8896;DHT22;4484;48.928;10.066;2023-04-01T03:12:11;6.60;99.90
8896;DHT22;4484;48.928;10.066;2023-04-01T03:14:46;6.60;99.90
8896;DHT22;4484;48.928;10.066;2023-04-01T03:17:13;6.60;99.90
8896;DHT22;4484;48.928;10.066;2023-04-01T03:19:40;6.50;99.90
8896;DHT22;4484;48.928;10.066;2023-04-01T03:22:10;6.50;99.90
8896;DHT22;4484;48.928;10.066;2023-04-01T03:24:37;6.50;99.90
8896;DHT22;4484;48.928;10.066;2023-04-01T03:27:04;6.50;99.90
8896;DHT22;4484;48.928;10.066;2023-04-01T03:29:31;6.40;99.90
8896;DHT22;4484;48.928;10.066;2023-04-01T03:31:58;6.50;99.90
8896;DHT22;4484;48.928;10.066;2023-04-01T03:34:25;6.50;99.90
8896;DHT22;4484;48.928;10.066;2023-04-01T03:36:52;6.50;99.90
8896;DHT22;4484;48.928;10.066;2023-04-01T03:39:19;6.50;99.90
8896;DHT22;4484;48.928;10.066;2023-04-01T03:41:46;6.50;99.90
8896;DHT22;4484;48.928;10.066;2023-04-01T03:44:13;6.50;99.90
8896;DHT22;4484;48.928;10.066;2023-04-01T03:46:41;6.50;99.90
8896;DHT22;4484;48.928;10.066;2023-04-01T03:49:09;6.50;99.90
8896;DHT22;4484;48.928;10.066;2023-04-01T03:51:39;6.50;99.90
8896;DHT22;4484;48.928;10.066;2023-04-01T03:54:07;6.50;99.90
8896;DHT22;4484;48.928;10.066;2023-04-01T03:56:34;6.40;99.90
8896;DHT22;4484;48.928;10.066;2023-04-01T03:59:03;6.40;99.90
8896;DHT22;4484;48.928;10.066;2023-04-01T04:01:30;6.40;99.90
8896;DHT22;4484;48.928;10.066;2023-04-01T04:03:57;6.40;99.90
8896;DHT22;4484;48.928;10.066;2023-04-01T04:06:25;6.50;99.90
8896;DHT22;4484;48.928;10.066;2023-04-01T04:08:52;6.50;99.90
8896;DHT22;4484;48.928;10.066;2023-04-01T04:11:21;6.50;99.90
8896;DHT22;4484;48.928;10.066;2023-04-01T04:13:50;6.50;99.90
8896;DHT22;4484;48.928;10.066;2023-04-01T04:16:19;6.50;99.90
8896;DHT22;4484;48.928;10.066;2023-04-01T04:18:53;6.40;99.90
8896;DHT22;4484;48.928;10.066;2023-04-01T04:21:19;6.40;99.90
8896;DHT22;4484;48.928;10.066;2023-04-01T04:23:46;6.40;99.90
8896;DHT22;4484;48.928;10.066;2023-04-01T04:26:15;6.40;99.90
8896;DHT22;4484;48.928;10.066;2023-04-01T04:28:47;6.30;99.90
8896;DHT22;4484;48.928;10.066;2023-04-01T04:31:21;6.30;99.90
8896;DHT22;4484;48.928;10.066;2023-04-01T04:33:49;6.30;99.90
8896;DHT22;4484;48.928;10.066;2023-04-01T04:36:18;6.30;99.90
8896;DHT22;4484;48.928;10.066;2023-04-01T04:38:47;6.30;99.90
8896;DHT22;4484;48.928;10.066;2023-04-01T04:41:15;6.20;99.90
8896;DHT22;4484;48.928;10.066;2023-04-01T04:43:53;6.20;99.90
8896;DHT22;4484;48.928;10.066;2023-04-01T04:46:22;6.20;99.90
8896;DHT22;4484;48.928;10.066;2023-04-01T04:48:53;6.20;99.90
8896;DHT22;4484;48.928;10.066;2023-04-01T04:51:21;6.20;99.90
8896;DHT22;4484;48.928;10.066;2023-04-01T04:53:49;6.20;99.90
8896;DHT22;4484;48.928;10.066;2023-04-01T04:56:21;6.20;99.90
8896;DHT22;4484;48.928;10.066;2023-04-01T04:59:03;6.20;99.90
8896;DHT22;4484;48.928;10.066;2023-04-01T05:01:40;6.20;99.90
8896;DHT22;4484;48.928;10.066;2023-04-01T05:04:07;6.20;99.90
8896;DHT22;4484;48.928;10.066;2023-04-01T05:06:34;6.20;99.90
8896;DHT22;4484;48.928;10.066;2023-04-01T05:09:01;6.20;99.90
8896;DHT22;4484;48.928;10.066;2023-04-01T05:11:28;6.30;99.90
8896;DHT22;4484;48.928;10.066;2023-04-01T05:13:55;6.30;99.90
8896;DHT22;4484;48.928;10.066;2023-04-01T05:16:23;6.30;99.90
8896;DHT22;4484;48.928;10.066;2023-04-01T05:18:51;6.30;99.90
8896;DHT22;4484;48.928;10.066;2023-04-01T05:21:17;6.30;99.90
8896;DHT22;4484;48.928;10.066;2023-04-01T05:23:45;6.30;99.90
8896;DHT22;4484;48.928;10.066;2023-04-01T05:26:13;6.40;99.90
8896;DHT22;4484;48.928;10.066;2023-04-01T05:28:41;6.40;99.90
8896;DHT22;4484;48.928;10.066;2023-04-01T05:31:09;6.40;99.90
8896;DHT22;4484;48.928;10.066;2023-04-01T05:33:41;6.50;99.90
8896;DHT22;4484;48.928;10.066;2023-04-01T05:36:08;6.50;99.90
8896;DHT22;4484;48.928;10.066;2023-04-01T05:38:36;6.50;99.90
8896;DHT22;4484;48.928;10.066;2023-04-01T05:41:04;6.50;99.90
8896;DHT22;4484;48.928;10.066;2023-04-01T05:43:37;6.60;99.90
8896;DHT22;4484;48.928;10.066;2023-04-01T05:46:23;6.60;99.90
8896;DHT22;4484;48.928;10.066;2023-04-01T05:49:09;6.60;99.90
8896;DHT22;4484;48.928;10.066;2023-04-01T05:51:37;6.70;99.90
8896;DHT22;4484;48.928;10.066;2023-04-01T05:54:05;6.70;99.90
8896;DHT22;4484;48.928;10.066;2023-04-01T05:56:32;6.70;99.90
8896;DHT22;4484;48.928;10.066;2023-04-01T05:59:00;6.80;99.90
8896;DHT22;4484;48.928;10.066;2023-04-01T06:01:27;6.80;99.90
8896;DHT22;4484;48.928;10.066;2023-04-01T06:03:54;6.80;99.90
8896;DHT22;4484;48.928;10.066;2023-04-01T06:06:26;6.80;99.90
8896;DHT22;4484;48.928;10.066;2023-04-01T06:09:12;6.90;99.90
8896;DHT22;4484;48.928;10.066;2023-04-01T06:14:52;6.90;99.90
8896;DHT22;4484;48.928;10.066;2023-04-01T06:20:12;7.00;99.90
8896;DHT22;4484;48.928;10.066;2023-04-01T06:31:02;7.10;99.90
8896;DHT22;4484;48.928;10.066;2023-04-01T06:39:17;7.30;99.90
8896;DHT22;4484;48.928;10.066;2023-04-01T06:50:58;7.40;99.90
8896;DHT22;4484;48.928;10.066;2023-04-01T06:54:03;7.50;99.90
8896;DHT22;4484;48.928;10.066;2023-04-01T06:57:00;7.60;99.90
8896;DHT22;4484;48.928;10.066;2023-04-01T06:59:32;7.60;99.90
8896;DHT22;4484;48.928;10.066;2023-04-01T07:02:19;7.70;99.90
8896;DHT22;4484;48.928;10.066;2023-04-01T07:04:50;7.70;99.90
8896;DHT22;4484;48.928;10.066;2023-04-01T07:07:38;7.70;99.90
8896;DHT22;4484;48.928;10.066;2023-04-01T07:10:19;7.80;99.90
8896;DHT22;4484;48.928;10.066;2023-04-01T07:12:55;7.80;99.90
8896;DHT22;4484;48.928;10.066;2023-04-01T07:15:48;7.80;99.90
8896;DHT22;4484;48.928;10.066;2023-04-01T07:18:42;7.80;99.90
8896;DHT22;4484;48.928;10.066;2023-04-01T07:21:29;7.80;99.90
8896;DHT22;4484;48.928;10.066;2023-04-01T07:24:05;7.80;99.90
8896;DHT22;4484;48.928;10.066;2023-04-01T07:26:37;7.80;99.90
8896;DHT22;4484;48.928;10.066;2023-04-01T07:29:13;7.80;99.90
8896;DHT22;4484;48.928;10.066;2023-04-01T07:37:34;7.90;99.90
8896;DHT22;4484;48.928;10.066;2023-04-01T07:46:03;8.10;99.90
8896;DHT22;4484;48.928;10.066;2023-04-01T07:51:32;8.20;99.90
8896;DHT22;4484;48.928;10.066;2023-04-01T07:54:28;8.20;99.90
8896;DHT22;4484;48.928;10.066;2023-04-01T08:00:14;8.30;99.90
8896;DHT22;4484;48.928;10.066;2023-04-01T08:03:17;8.40;99.90
8896;DHT22;4484;48.928;10.066;2023-04-01T08:08:27;8.50;99.90
8896;DHT22;4484;48.928;10.066;2023-04-01T08:18:46;8.70;99.90
8896;DHT22;4484;48.928;10.066;2023-04-01T08:21:23;8.70;99.90
8896;DHT22;4484;48.928;10.066;2023-04-01T08:23:57;8.70;99.90
8896;DHT22;4484;48.928;10.066;2023-04-01T08:26:43;8.70;99.90
8896;DHT22;4484;48.928;10.066;2023-04-01T08:29:16;8.80;99.90
8896;DHT22;4484;48.928;10.066;2023-04-01T08:32:00;8.90;99.90
8896;DHT22;4484;48.928;10.066;2023-04-01T08:34:34;9.00;99.90
8896;DHT22;4484;48.928;10.066;2023-04-01T08:37:17;9.10;99.90
8896;DHT22;4484;48.928;10.066;2023-04-01T08:39:57;9.20;99.90
8896;DHT22;4484;48.928;10.066;2023-04-01T08:42:31;9.20;99.90
8896;DHT22;4484;48.928;10.066;2023-04-01T08:45:24;9.20;99.90
8896;DHT22;4484;48.928;10.066;2023-04-01T08:50:58;9.00;99.90
8896;DHT22;4484;48.928;10.066;2023-04-01T08:56:33;8.90;99.90
8896;DHT22;4484;48.928;10.066;2023-04-01T09:13:39;8.40;99.90
8896;DHT22;4484;48.928;10.066;2023-04-01T09:22:10;8.20;99.90
8896;DHT22;4484;48.928;10.066;2023-04-01T09:27:26;8.10;99.90
8896;DHT22;4484;48.928;10.066;2023-04-01T09:47:37;8.20;99.90
8896;DHT22;4484;48.928;10.066;2023-04-01T09:50:27;8.20;99.90
8896;DHT22;4484;48.928;10.066;2023-04-01T09:59:08;8.10;99.90
8896;DHT22;4484;48.928;10.066;2023-04-01T10:13:54;7.90;99.90
8896;DHT22;4484;48.928;10.066;2023-04-01T10:19:55;7.90;99.90
8896;DHT22;4484;48.928;10.066;2023-04-01T10:45:26;7.90;99.90
8896;DHT22;4484;48.928;10.066;2023-04-01T11:09:14;8.30;99.90
8896;DHT22;4484;48.928;10.066;2023-04-01T11:14:59;8.30;99.90
8896;DHT22;4484;48.928;10.066;2023-04-01T11:23:08;8.30;99.90
8896;DHT22;4484;48.928;10.066;2023-04-01T11:40:38;8.10;99.90
8896;DHT22;4484;48.928;10.066;2023-04-01T11:44:09;8.10;99.90
8896;DHT22;4484;48.928;10.066;2023-04-01T12:25:03;8.60;99.90
8896;DHT22;4484;48.928;10.066;2023-04-01T12:30:49;8.60;99.90
8896;DHT22;4484;48.928;10.066;2023-04-01T12:36:28;8.60;99.90
8896;DHT22;4484;48.928;10.066;2023-04-01T12:47:40;8.70;99.90
8896;DHT22;4484;48.928;10.066;2023-04-01T12:55:48;8.70;99.90
8896;DHT22;4484;48.928;10.066;2023-04-01T13:01:43;8.80;99.90
8896;DHT22;4484;48.928;10.066;2023-04-01T13:10:18;8.80;99.90
8896;DHT22;4484;48.928;10.066;2023-04-01T13:15:23;8.90;99.90
8896;DHT22;4484;48.928;10.066;2023-04-01T13:18:05;8.80;99.90
8896;DHT22;4484;48.928;10.066;2023-04-01T13:21:06;8.80;99.90
8896;DHT22;4484;48.928;10.066;2023-04-01T13:32:28;8.80;99.90
8896;DHT22;4484;48.928;10.066;2023-04-01T13:35:40;8.80;99.90
8896;DHT22;4484;48.928;10.066;2023-04-01T13:41:20;8.80;99.90
8896;DHT22;4484;48.928;10.066;2023-04-01T13:44:02;8.70;99.90
8896;DHT22;4484;48.928;10.066;2023-04-01T14:03:30;8.70;99.90
8896;DHT22;4484;48.928;10.066;2023-04-01T14:11:16;8.70;99.90
8896;DHT22;4484;48.928;10.066;2023-04-01T14:22:53;8.70;99.90
8896;DHT22;4484;48.928;10.066;2023-04-01T14:40:28;9.00;99.90
8896;DHT22;4484;48.928;10.066;2023-04-01T14:48:51;8.80;99.90
8896;DHT22;4484;48.928;10.066;2023-04-01T14:54:15;8.70;99.90
8896;DHT22;4484;48.928;10.066;2023-04-01T14:56:50;8.60;99.90
8896;DHT22;4484;48.928;10.066;2023-04-01T14:59:27;8.60;99.90
8896;DHT22;4484;48.928;10.066;2023-04-01T15:16:07;8.60;99.90
8896;DHT22;4484;48.928;10.066;2023-04-01T15:19:01;8.60;99.90
8896;DHT22;4484;48.928;10.066;2023-04-01T15:29:26;8.50;99.90
8896;DHT22;4484;48.928;10.066;2023-04-01T15:37:39;8.60;99.90
8896;DHT22;4484;48.928;10.066;2023-04-01T16:02:51;8.30;99.90
8896;DHT22;4484;48.928;10.066;2023-04-01T16:13:53;8.30;99.90
8896;DHT22;4484;48.928;10.066;2023-04-01T16:29:55;7.90;99.90
8896;DHT22;4484;48.928;10.066;2023-04-01T16:32:34;7.90;99.90
8896;DHT22;4484;48.928;10.066;2023-04-01T16:38:05;7.80;99.90
8896;DHT22;4484;48.928;10.066;2023-04-01T16:43:53;7.70;99.90
8896;DHT22;4484;48.928;10.066;2023-04-01T16:51:54;7.70;99.90
8896;DHT22;4484;48.928;10.066;2023-04-01T16:54:34;7.70;99.90
8896;DHT22;4484;48.928;10.066;2023-04-01T16:57:16;7.70;99.90
8896;DHT22;4484;48.928;10.066;2023-04-01T17:02:37;7.70;99.90
8896;DHT22;4484;48.928;10.066;2023-04-01T17:05:12;7.70;99.90
8896;DHT22;4484;48.928;10.066;2023-04-01T17:08:05;7.60;99.90
8896;DHT22;4484;48.928;10.066;2023-04-01T17:33:00;7.40;99.90
8896;DHT22;4484;48.928;10.066;2023-04-01T17:49:45;7.30;99.90
8896;DHT22;4484;48.928;10.066;2023-04-01T17:58:19;7.30;99.90
8896;DHT22;4484;48.928;10.066;2023-04-01T18:01:13;7.20;99.90
8896;DHT22;4484;48.928;10.066;2023-04-01T18:06:36;7.10;99.90
8896;DHT22;4484;48.928;10.066;2023-04-01T18:12:14;7.10;99.90
8896;DHT22;4484;48.928;10.066;2023-04-01T18:15:08;7.10;99.90
8896;DHT22;4484;48.928;10.066;2023-04-01T18:25:49;7.00;99.90
8896;DHT22;4484;48.928;10.066;2023-04-01T18:30:53;7.00;99.90
8896;DHT22;4484;48.928;10.066;2023-04-01T18:33:48;7.00;99.90
8896;DHT22;4484;48.928;10.066;2023-04-01T18:42:17;7.00;99.90
8896;DHT22;4484;48.928;10.066;2023-04-01T18:44:47;6.90;99.90
8896;DHT22;4484;48.928;10.066;2023-04-01T18:47:38;7.00;99.90
8896;DHT22;4484;48.928;10.066;2023-04-01T18:53:19;7.00;99.90
8896;DHT22;4484;48.928;10.066;2023-04-01T18:56:03;6.90;99.90
8896;DHT22;4484;48.928;10.066;2023-04-01T18:58:54;6.90;99.90
8896;DHT22;4484;48.928;10.066;2023-04-01T19:01:40;6.90;99.90
8896;DHT22;4484;48.928;10.066;2023-04-01T19:09:25;6.90;99.90
8896;DHT22;4484;48.928;10.066;2023-04-01T19:15:12;6.90;99.90
8896;DHT22;4484;48.928;10.066;2023-04-01T19:17:54;6.80;99.90
8896;DHT22;4484;48.928;10.066;2023-04-01T19:26:18;6.70;99.90
8896;DHT22;4484;48.928;10.066;2023-04-01T19:37:33;6.50;99.90
8896;DHT22;4484;48.928;10.066;2023-04-01T19:40:26;6.50;99.90
8896;DHT22;4484;48.928;10.066;2023-04-01T19:43:08;6.40;99.90
8896;DHT22;4484;48.928;10.066;2023-04-01T19:48:44;6.30;99.90
8896;DHT22;4484;48.928;10.066;2023-04-01T19:51:21;6.30;99.90
8896;DHT22;4484;48.928;10.066;2023-04-01T19:54:12;6.30;99.90
8896;DHT22;4484;48.928;10.066;2023-04-01T19:57:04;6.30;99.90
8896;DHT22;4484;48.928;10.066;2023-04-01T19:59:47;6.30;99.90
8896;DHT22;4484;48.928;10.066;2023-04-01T20:02:28;6.40;99.90
8896;DHT22;4484;48.928;10.066;2023-04-01T20:05:00;6.40;99.90
8896;DHT22;4484;48.928;10.066;2023-04-01T20:10:52;6.50;99.90
8896;DHT22;4484;48.928;10.066;2023-04-01T20:16:05;6.40;99.90
8896;DHT22;4484;48.928;10.066;2023-04-01T20:18:46;6.30;99.90
8896;DHT22;4484;48.928;10.066;2023-04-01T20:21:34;6.30;99.90
8896;DHT22;4484;48.928;10.066;2023-04-01T20:24:25;6.30;99.90
8896;DHT22;4484;48.928;10.066;2023-04-01T20:27:04;6.30;99.90
8896;DHT22;4484;48.928;10.066;2023-04-01T20:29:55;6.20;99.90
8896;DHT22;4484;48.928;10.066;2023-04-01T20:41:37;6.30;99.90
8896;DHT22;4484;48.928;10.066;2023-04-01T20:44:12;6.30;99.90
8896;DHT22;4484;48.928;10.066;2023-04-01T20:58:01;6.30;99.90
8896;DHT22;4484;48.928;10.066;2023-04-01T21:06:14;6.30;99.90
8896;DHT22;4484;48.928;10.066;2023-04-01T21:09:02;6.30;99.90
8896;DHT22;4484;48.928;10.066;2023-04-01T21:20:07;6.40;99.90
8896;DHT22;4484;48.928;10.066;2023-04-01T21:25:31;6.30;99.90
8896;DHT22;4484;48.928;10.066;2023-04-01T21:41:41;6.30;99.90
8896;DHT22;4484;48.928;10.066;2023-04-01T21:58:27;6.30;99.90
8896;DHT22;4484;48.928;10.066;2023-04-01T22:06:34;6.30;99.90
8896;DHT22;4484;48.928;10.066;2023-04-01T22:09:11;6.30;99.90
8896;DHT22;4484;48.928;10.066;2023-04-01T22:11:50;6.30;99.90
8896;DHT22;4484;48.928;10.066;2023-04-01T22:14:24;6.30;99.90
8896;DHT22;4484;48.928;10.066;2023-04-01T22:19:28;6.30;99.90
8896;DHT22;4484;48.928;10.066;2023-04-01T22:22:21;6.30;99.90
8896;DHT22;4484;48.928;10.066;2023-04-01T22:27:52;6.20;99.90
8896;DHT22;4484;48.928;10.066;2023-04-01T22:30:41;6.20;99.90
8896;DHT22;4484;48.928;10.066;2023-04-01T22:33:23;6.20;99.90
8896;DHT22;4484;48.928;10.066;2023-04-01T22:36:13;6.20;99.90
8896;DHT22;4484;48.928;10.066;2023-04-01T22:38:48;6.20;99.90
8896;DHT22;4484;48.928;10.066;2023-04-01T22:41:38;6.10;99.90
8896;DHT22;4484;48.928;10.066;2023-04-01T22:44:22;6.20;99.90
8896;DHT22;4484;48.928;10.066;2023-04-01T22:47:04;6.20;99.90
8896;DHT22;4484;48.928;10.066;2023-04-01T22:49:38;6.20;99.90
8896;DHT22;4484;48.928;10.066;2023-04-01T22:55:00;6.10;99.90
8896;DHT22;4484;48.928;10.066;2023-04-01T23:02:40;6.10;99.90
8896;DHT22;4484;48.928;10.066;2023-04-01T23:05:18;6.10;99.90
8896;DHT22;4484;48.928;10.066;2023-04-01T23:10:52;6.10;99.90
8896;DHT22;4484;48.928;10.066;2023-04-01T23:13:29;6.20;99.90
8896;DHT22;4484;48.928;10.066;2023-04-01T23:15:58;6.20;99.90
8896;DHT22;4484;48.928;10.066;2023-04-01T23:21:24;6.20;99.90
8896;DHT22;4484;48.928;10.066;2023-04-01T23:29:13;6.20;99.90
8896;DHT22;4484;48.928;10.066;2023-04-01T23:31:42;6.20;99.90
8896;DHT22;4484;48.928;10.066;2023-04-01T23:37:24;6.20;99.90
8896;DHT22;4484;48.928;10.066;2023-04-01T23:39:40;6.20;99.90
8896;DHT22;4484;48.928;10.066;2023-04-01T23:44:42;6.20;99.90
8896;DHT22;4484;48.928;10.066;2023-04-01T23:47:16;6.20;99.90
8896;DHT22;4484;48.928;10.066;2023-04-01T23:50:11;6.20;99.90
8896;DHT22;4484;48.928;10.066;2023-04-01T23:52:52;6.20;99.90
8896;DHT22;4484;48.928;10.066;2023-04-01T23:55:30;6.20;99.90
